createdAt,value
2022-08-05T00:00:55.872Z,95719.47
2022-08-05T00:03:43.342Z,95707.78
2022-08-05T00:06:27.755Z,95707.94
2022-08-05T00:09:01.626Z,95702.94
2022-08-05T00:11:30.619Z,95713.50
2022-08-05T00:14:12.999Z,95686.44
2022-08-05T00:16:52.995Z,95687.47
2022-08-05T00:19:22.230Z,95680.34
2022-08-05T00:21:50.288Z,95678.78
2022-08-05T00:24:24.643Z,95676.44
2022-08-05T00:26:53.413Z,95682.66
2022-08-05T00:29:22.697Z,95679.41
2022-08-05T00:32:13.127Z,95672.56
2022-08-05T00:34:53.414Z,95656.84
2022-08-05T00:37:50.682Z,95664.25
2022-08-05T00:40:17.564Z,95658.50
2022-08-05T00:42:48.224Z,95662.41
2022-08-05T00:45:16.783Z,95664.56
2022-08-05T00:48:05.290Z,95666.56
2022-08-05T00:50:33.344Z,95680.25
2022-08-05T00:53:00.961Z,95684.28
2022-08-05T00:55:42.544Z,95681.13
2022-08-05T00:58:11.630Z,95697.97
2022-08-05T01:00:40.144Z,95705.81
2022-08-05T01:03:10.360Z,95689.72
2022-08-05T01:05:49.666Z,95705.50
2022-08-05T01:08:31.620Z,95710.00
2022-08-05T01:11:14.075Z,95706.88
2022-08-05T01:14:03.698Z,95707.94
2022-08-05T01:16:41.257Z,95689.44
2022-08-05T01:19:46.129Z,95683.47
2022-08-05T01:22:41.564Z,95678.47
2022-08-05T01:25:40.042Z,95664.03
2022-08-05T01:28:18.791Z,95653.47
2022-08-05T01:30:53.905Z,95659.59
2022-08-05T01:33:26.221Z,95639.53
2022-08-05T01:35:57.392Z,95634.38
2022-08-05T01:38:30.137Z,95649.13
2022-08-05T01:40:59.595Z,95657.28
2022-08-05T01:43:29.877Z,95667.78
2022-08-05T01:45:58.894Z,95671.84
2022-08-05T01:48:37.505Z,95675.97
2022-08-05T01:51:12.308Z,95664.66
2022-08-05T01:53:56.928Z,95669.09
2022-08-05T01:58:13.082Z,95709.34
2022-08-05T01:59:22.569Z,95758.41
2022-08-05T02:01:54.584Z,95775.69
2022-08-05T02:04:24.591Z,95782.13
2022-08-05T02:06:53.665Z,95785.84
2022-08-05T02:09:21.454Z,95778.81
2022-08-05T02:11:57.660Z,95781.63
2022-08-05T02:14:32.050Z,95786.63
2022-08-05T02:17:06.034Z,95809.59
2022-08-05T02:19:47.002Z,95816.06
2022-08-05T02:22:26.798Z,95787.94
2022-08-05T02:25:01.829Z,95797.59
2022-08-05T02:27:59.159Z,95812.66
2022-08-05T02:30:20.264Z,95821.34
2022-08-05T02:32:52.001Z,95837.00
2022-08-05T02:35:22.106Z,95830.81
2022-08-05T02:38:00.171Z,95839.22
2022-08-05T02:40:30.640Z,95826.69
2022-08-05T02:42:59.993Z,95839.78
2022-08-05T02:45:52.706Z,95831.09
2022-08-05T02:48:18.170Z,95828.25
2022-08-05T02:50:50.110Z,95834.59
2022-08-05T02:53:20.710Z,95836.97
2022-08-05T02:55:54.671Z,95840.63
2022-08-05T02:58:26.795Z,95831.63
2022-08-05T03:00:57.522Z,95844.72
2022-08-05T03:03:25.096Z,95848.44
2022-08-05T03:06:53.999Z,95839.44
2022-08-05T03:08:43.128Z,95849.56
2022-08-05T03:11:54.565Z,95847.41
2022-08-05T03:14:09.206Z,95831.25
2022-08-05T03:16:42.188Z,95844.56
2022-08-05T03:19:17.152Z,95838.22
2022-08-05T03:21:57.635Z,95837.75
2022-08-05T03:24:30.143Z,95835.31
2022-08-05T03:26:58.665Z,95830.91
2022-08-05T03:29:45.392Z,95820.56
2022-08-05T03:32:16.147Z,95822.25
2022-08-05T03:34:50.373Z,95816.38
2022-08-05T03:37:19.772Z,95812.84
2022-08-05T03:39:58.561Z,95805.56
2022-08-05T03:42:28.988Z,95810.97
2022-08-05T03:44:57.043Z,95787.22
2022-08-05T03:47:26.148Z,95777.13
2022-08-05T03:50:02.593Z,95764.66
2022-08-05T03:54:58.810Z,95744.69
2022-08-05T03:56:05.922Z,95708.06
2022-08-05T03:58:19.833Z,95617.59
2022-08-05T04:00:51.532Z,95587.00
2022-08-05T04:03:28.347Z,95639.81
2022-08-05T04:05:57.766Z,95648.00
2022-08-05T04:08:36.028Z,95639.47
2022-08-05T04:11:07.284Z,95634.06
2022-08-05T04:13:49.770Z,95644.47
2022-08-05T04:16:25.102Z,95636.97
2022-08-05T04:19:00.219Z,95625.25
2022-08-05T04:22:08.789Z,95624.31
2022-08-05T04:24:19.464Z,95615.31
2022-08-05T04:26:50.716Z,95615.78
2022-08-05T04:29:18.591Z,95616.81
2022-08-05T04:31:48.529Z,95615.56
2022-08-05T04:34:32.860Z,95613.22
2022-08-05T04:37:03.077Z,95636.56
2022-08-05T04:39:30.906Z,95630.81
2022-08-05T04:42:00.164Z,95674.00
2022-08-05T04:44:30.724Z,95684.44
2022-08-05T04:46:58.995Z,95688.63
2022-08-05T04:50:01.958Z,95701.22
2022-08-05T04:52:16.065Z,95724.06
2022-08-05T04:54:43.563Z,95727.41
2022-08-05T04:57:11.168Z,95730.81
2022-08-05T04:59:40.795Z,95737.38
2022-08-05T05:02:36.283Z,95745.94
2022-08-05T05:05:02.268Z,95742.69
2022-08-05T05:07:32.249Z,95738.66
2022-08-05T05:10:04.167Z,95721.75
2022-08-05T05:12:31.680Z,95725.53
2022-08-05T05:14:59.107Z,95725.22
2022-08-05T05:17:55.719Z,95717.47
2022-08-05T05:20:28.734Z,95724.63
2022-08-05T05:22:56.503Z,95719.31
2022-08-05T05:25:32.986Z,95725.13
2022-08-05T05:28:08.540Z,95734.44
2022-08-05T05:30:36.945Z,95732.25
2022-08-05T05:33:15.877Z,95739.13
2022-08-05T05:35:47.695Z,95738.69
2022-08-05T05:38:22.806Z,95746.22
2022-08-05T05:40:55.019Z,95756.50
2022-08-05T05:43:54.053Z,95767.25
2022-08-05T05:46:17.627Z,95763.16
2022-08-05T05:48:48.115Z,95764.84
2022-08-05T05:51:21.773Z,95753.19
2022-08-05T05:53:57.321Z,95757.13
2022-08-05T05:56:33.348Z,95752.00
2022-08-05T05:59:05.741Z,95749.47
2022-08-05T06:01:37.877Z,95765.31
2022-08-05T06:04:07.291Z,95777.47
2022-08-05T06:06:36.567Z,95781.06
2022-08-05T06:09:05.319Z,95781.59
2022-08-05T06:11:32.912Z,95783.31
2022-08-05T06:14:00.749Z,95782.09
2022-08-05T06:16:36.776Z,95778.25
2022-08-05T06:19:07.540Z,95763.50
2022-08-05T06:21:38.714Z,95766.72
2022-08-05T06:24:11.959Z,95773.88
2022-08-05T06:26:40.128Z,95790.22
2022-08-05T06:29:43.114Z,95793.19
2022-08-05T06:32:17.277Z,95791.38
2022-08-05T06:34:56.292Z,95790.31
2022-08-05T06:37:56.973Z,95792.66
2022-08-05T06:40:18.287Z,95800.00
2022-08-05T06:42:52.185Z,95804.25
2022-08-05T06:45:20.684Z,95813.41
2022-08-05T06:48:36.566Z,95809.84
2022-08-05T06:50:36.576Z,95795.84
2022-08-05T06:53:22.606Z,95805.34
2022-08-05T06:55:52.812Z,95798.66
2022-08-05T06:58:29.976Z,95808.28
2022-08-05T07:01:05.916Z,95808.44
2022-08-05T07:03:34.451Z,95811.59
2022-08-05T07:06:06.101Z,95805.19
2022-08-05T07:08:47.310Z,95814.53
2022-08-05T07:11:16.043Z,95808.91
2022-08-05T07:14:01.364Z,95815.63
2022-08-05T07:17:56.912Z,95821.50
2022-08-05T07:22:28.574Z,95835.13
2022-08-05T07:25:23.775Z,95838.91
2022-08-05T07:27:57.251Z,95850.09
2022-08-05T07:30:32.757Z,95858.69
2022-08-05T07:33:01.057Z,95862.41
2022-08-05T07:36:04.970Z,95877.19
2022-08-05T07:38:33.491Z,95883.75
2022-08-05T07:42:09.118Z,95891.84
2022-08-05T07:43:52.519Z,95899.97
2022-08-05T07:46:25.207Z,95886.22
2022-08-05T07:49:03.477Z,95897.75
2022-08-05T07:51:37.215Z,95864.91
2022-08-05T07:54:10.589Z,95902.25
2022-08-05T07:57:13.758Z,95898.19
2022-08-05T07:59:38.908Z,95904.38
2022-08-05T08:02:10.648Z,95911.66
2022-08-05T08:04:45.431Z,95912.25
2022-08-05T08:07:13.461Z,95908.13
2022-08-05T08:09:40.987Z,95907.06
2022-08-05T08:12:27.521Z,95915.03
2022-08-05T08:15:02.220Z,95914.91
2022-08-05T08:17:31.076Z,95911.97
2022-08-05T08:20:42.927Z,95914.31
2022-08-05T08:22:51.861Z,95909.41
2022-08-05T08:25:27.048Z,95921.81
2022-08-05T08:28:18.009Z,95918.44
2022-08-05T08:30:47.737Z,95918.19
2022-08-05T08:33:17.510Z,95905.81
2022-08-05T08:35:53.779Z,95901.34
2022-08-05T08:38:35.747Z,95896.38
2022-08-05T08:41:06.641Z,95896.59
2022-08-05T08:46:26.891Z,95896.19
2022-08-05T08:49:04.160Z,95905.28
2022-08-05T08:52:02.873Z,95894.56
2022-08-05T08:54:27.689Z,95898.19
2022-08-05T08:56:56.511Z,95901.34
2022-08-05T08:59:27.766Z,95917.44
2022-08-05T09:02:02.576Z,95916.53
2022-08-05T09:04:37.616Z,95908.25
2022-08-05T09:07:28.934Z,95907.56
2022-08-05T09:09:57.250Z,95911.84
2022-08-05T09:12:27.429Z,95921.03
2022-08-05T09:15:06.222Z,95919.47
2022-08-05T09:17:42.396Z,95919.63
2022-08-05T09:20:20.900Z,95928.22
2022-08-05T09:23:09.206Z,95930.84
2022-08-05T09:26:02.571Z,95920.25
2022-08-05T09:28:32.601Z,95909.94
2022-08-05T09:31:23.483Z,95926.13
2022-08-05T09:33:55.174Z,95926.94
2022-08-05T09:36:27.883Z,95943.06
2022-08-05T09:39:03.436Z,95947.44
2022-08-05T09:41:58.424Z,95963.47
2022-08-05T09:44:37.252Z,95961.09
2022-08-05T09:47:15.834Z,95957.13
2022-08-05T09:50:01.074Z,95968.63
2022-08-05T09:52:32.125Z,95971.13
2022-08-05T09:55:55.294Z,95984.22
2022-08-05T09:57:49.228Z,95979.81
2022-08-05T10:00:24.623Z,95999.03
2022-08-05T10:02:54.861Z,96001.16
2022-08-05T10:05:28.632Z,96019.16
2022-08-05T10:08:34.632Z,96020.16
2022-08-05T10:10:50.221Z,96020.16
2022-08-05T10:13:31.800Z,96014.25
2022-08-05T10:16:30.753Z,96014.88
2022-08-05T10:19:08.496Z,96032.50
2022-08-05T10:21:40.271Z,96031.84
2022-08-05T10:24:10.548Z,96042.25
2022-08-05T10:26:51.503Z,96027.19
2022-08-05T10:29:23.511Z,96045.16
2022-08-05T10:32:54.723Z,96050.66
2022-08-05T10:34:41.232Z,96044.63
2022-08-05T10:37:08.924Z,96045.81
2022-08-05T10:39:59.180Z,96047.72
2022-08-05T10:42:33.771Z,96066.69
2022-08-05T10:45:21.291Z,96060.94
2022-08-05T10:48:29.165Z,96071.47
2022-08-05T10:50:58.881Z,96064.31
2022-08-05T10:53:38.460Z,96070.38
2022-08-05T10:56:21.598Z,96072.88
2022-08-05T10:59:12.703Z,96084.28
2022-08-05T11:02:08.030Z,96091.53
2022-08-05T11:04:45.020Z,96099.53
2022-08-05T11:07:16.383Z,96109.38
2022-08-05T11:09:47.873Z,96115.94
2022-08-05T11:12:45.372Z,96131.09
2022-08-05T11:15:21.279Z,96129.75
2022-08-05T11:18:07.475Z,96144.53
2022-08-05T11:20:46.061Z,96154.59
2022-08-05T11:24:04.326Z,96154.88
2022-08-05T11:26:29.154Z,96160.09
2022-08-05T11:29:11.725Z,96166.34
2022-08-05T11:31:56.610Z,96160.72
2022-08-05T11:34:38.853Z,96169.31
2022-08-05T11:38:36.792Z,96169.56
2022-08-05T11:40:02.643Z,96169.94
2022-08-05T11:42:33.159Z,96172.50
2022-08-05T11:45:14.513Z,96172.97
2022-08-05T11:47:54.950Z,96159.69
2022-08-05T11:50:22.703Z,96173.94
2022-08-05T11:52:54.358Z,96172.53
2022-08-05T11:55:31.961Z,96173.59
2022-08-05T11:58:09.840Z,96178.44
2022-08-05T12:00:41.266Z,96184.25
2022-08-05T12:03:24.089Z,96190.75
2022-08-05T12:06:00.525Z,96183.69
2022-08-05T12:08:28.472Z,96179.41
2022-08-05T12:11:06.018Z,96185.00
2022-08-05T12:13:48.719Z,96169.78
2022-08-05T12:16:20.091Z,96172.00
2022-08-05T12:18:53.785Z,96159.41
2022-08-05T12:21:24.024Z,96176.09
2022-08-05T12:23:56.173Z,96180.16
2022-08-05T12:26:25.337Z,96176.28
2022-08-05T12:28:53.488Z,96186.47
2022-08-05T12:31:23.774Z,96191.63
2022-08-05T12:34:01.489Z,96188.03
2022-08-05T12:36:31.650Z,96197.81
2022-08-05T12:38:59.868Z,96197.72
2022-08-05T12:41:34.697Z,96191.47
2022-08-05T12:44:03.723Z,96199.53
2022-08-05T12:46:33.123Z,96194.31
2022-08-05T12:49:12.920Z,96195.91
2022-08-05T12:52:13.975Z,96205.91
2022-08-05T12:54:33.381Z,96201.94
2022-08-05T12:57:09.295Z,96213.59
2022-08-05T13:00:08.889Z,96214.97
2022-08-05T13:02:37.155Z,96224.28
2022-08-05T13:05:12.728Z,96208.69
2022-08-05T13:08:00.995Z,96227.91
2022-08-05T13:10:32.066Z,96237.88
2022-08-05T13:13:00.831Z,96227.03
2022-08-05T13:15:41.709Z,96193.09
2022-08-05T13:18:18.789Z,96237.19
2022-08-05T13:20:47.475Z,96241.22
2022-08-05T13:23:18.000Z,96226.69
2022-08-05T13:25:52.701Z,96219.94
2022-08-05T13:28:28.869Z,96226.94
2022-08-05T13:30:57.269Z,96233.16
2022-08-05T13:34:23.299Z,96232.16
2022-08-05T13:36:13.225Z,96242.00
2022-08-05T13:38:43.058Z,96238.63
2022-08-05T13:41:10.957Z,96234.03
2022-08-05T13:43:45.924Z,96231.97
2022-08-05T13:47:01.726Z,96218.72
2022-08-05T13:49:11.880Z,96223.91
2022-08-05T13:51:45.730Z,96231.19
2022-08-05T13:54:15.536Z,96225.63
2022-08-05T13:56:50.775Z,96230.81
2022-08-05T13:59:23.807Z,96232.44
2022-08-05T14:01:58.063Z,96217.03
2022-08-05T14:04:49.131Z,96229.91
2022-08-05T14:07:26.186Z,96222.25
2022-08-05T14:10:05.320Z,96226.47
2022-08-05T14:12:36.166Z,96227.69
2022-08-05T14:16:09.044Z,96221.63
2022-08-05T14:17:55.113Z,96223.66
2022-08-05T14:20:27.624Z,96212.16
2022-08-05T14:22:55.273Z,96221.75
2022-08-05T14:25:28.298Z,96228.19
2022-08-05T14:27:58.383Z,96226.47
2022-08-05T14:30:28.409Z,96225.19
2022-08-05T14:32:57.439Z,96235.59
2022-08-05T14:35:50.011Z,96237.50
2022-08-05T14:38:31.571Z,96230.19
2022-08-05T14:41:01.962Z,96226.34
2022-08-05T14:44:00.073Z,96231.25
2022-08-05T14:46:23.365Z,96225.84
2022-08-05T14:48:57.832Z,96224.28
2022-08-05T14:51:30.906Z,96221.66
2022-08-05T14:54:27.841Z,96226.94
2022-08-05T14:56:46.724Z,96217.38
2022-08-05T14:59:14.532Z,96242.19
2022-08-05T15:01:48.969Z,96238.34
2022-08-05T15:04:17.363Z,96235.25
2022-08-05T15:06:49.252Z,96248.16
2022-08-05T15:09:50.547Z,96246.13
2022-08-05T15:12:05.804Z,96250.81
2022-08-05T15:14:43.099Z,96256.97
2022-08-05T15:17:46.920Z,96273.91
2022-08-05T15:20:17.045Z,96271.53
2022-08-05T15:22:46.793Z,96268.13
2022-08-05T15:25:23.592Z,96282.81
2022-08-05T15:28:13.426Z,96274.56
2022-08-05T15:30:42.472Z,96274.06
2022-08-05T15:33:12.598Z,96267.34
2022-08-05T15:35:59.986Z,96278.22
2022-08-05T15:38:35.799Z,96274.78
2022-08-05T15:41:20.469Z,96282.50
2022-08-05T15:43:51.102Z,96283.00
2022-08-05T15:46:20.298Z,96284.91
2022-08-05T15:49:01.129Z,96287.25
2022-08-05T15:52:09.738Z,96280.09
2022-08-05T15:54:34.927Z,96272.16
2022-08-05T15:57:07.763Z,96283.09
2022-08-05T15:59:35.843Z,96282.06
2022-08-05T16:02:03.329Z,96268.63
2022-08-05T16:04:38.726Z,96280.59
2022-08-05T16:07:06.891Z,96273.72
2022-08-05T16:09:41.718Z,96286.09
2022-08-05T16:12:10.000Z,96285.59
2022-08-05T16:14:38.922Z,96293.22
2022-08-05T16:17:07.182Z,96291.38
2022-08-05T16:20:05.075Z,96292.97
2022-08-05T16:22:27.694Z,96290.00
2022-08-05T16:25:08.163Z,96300.81
2022-08-05T16:27:47.191Z,96295.09
2022-08-05T16:30:28.600Z,96314.91
2022-08-05T16:32:56.767Z,96302.94
2022-08-05T16:35:28.116Z,96305.19
2022-08-05T16:38:15.000Z,96312.22
2022-08-05T16:40:47.807Z,96315.88
2022-08-05T16:43:26.268Z,96318.63
2022-08-05T16:46:05.335Z,96317.34
2022-08-05T16:48:36.039Z,96311.19
2022-08-05T16:51:09.913Z,96329.09
2022-08-05T16:54:04.018Z,96328.09
2022-08-05T16:56:27.662Z,96322.88
2022-08-05T16:58:55.662Z,96332.38
2022-08-05T17:01:24.318Z,96329.63
2022-08-05T17:03:52.210Z,96333.75
2022-08-05T17:06:24.796Z,96340.53
2022-08-05T17:08:54.377Z,96338.13
2022-08-05T17:11:23.945Z,96337.66
2022-08-05T17:14:00.244Z,96342.28
2022-08-05T17:16:35.977Z,96345.00
2022-08-05T17:19:07.444Z,96352.78
2022-08-05T17:21:39.713Z,96346.81
2022-08-05T17:24:30.343Z,96350.22
2022-08-05T17:26:57.166Z,96343.66
2022-08-05T17:29:33.632Z,96349.94
2022-08-05T17:32:08.440Z,96344.53
2022-08-05T17:34:38.672Z,96351.09
2022-08-05T17:37:39.277Z,96352.97
2022-08-05T17:39:55.991Z,96350.50
2022-08-05T17:42:30.134Z,96353.34
2022-08-05T17:45:00.120Z,96350.88
2022-08-05T17:47:37.858Z,96360.28
2022-08-05T17:50:10.756Z,96371.00
2022-08-05T17:52:52.621Z,96367.38
2022-08-05T17:55:22.187Z,96366.03
2022-08-05T17:57:50.112Z,96374.94
2022-08-05T18:00:18.549Z,96365.59
2022-08-05T18:02:47.101Z,96376.66
2022-08-05T18:05:17.023Z,96379.78
2022-08-05T18:07:46.359Z,96392.47
2022-08-05T18:10:20.907Z,96390.91
2022-08-05T18:12:49.072Z,96392.97
2022-08-05T18:15:16.599Z,96391.03
2022-08-05T18:17:59.229Z,96403.25
2022-08-05T18:20:31.988Z,96406.31
2022-08-05T18:23:09.416Z,96411.81
2022-08-05T18:25:39.845Z,96411.72
2022-08-05T18:28:16.195Z,96419.19
2022-08-05T18:30:44.770Z,96419.09
2022-08-05T18:33:13.536Z,96418.53
2022-08-05T18:36:01.316Z,96431.34
2022-08-05T18:38:30.971Z,96420.41
2022-08-05T18:41:57.640Z,96420.97
2022-08-05T18:43:48.648Z,96426.19
2022-08-05T18:46:19.592Z,96408.94
2022-08-05T18:48:48.310Z,96432.09
2022-08-05T18:52:06.204Z,96428.41
2022-08-05T18:54:27.635Z,96429.75
2022-08-05T18:56:58.345Z,96435.84
2022-08-05T18:59:43.652Z,96435.44
2022-08-05T19:02:27.184Z,96431.53
2022-08-05T19:05:02.801Z,96436.66
2022-08-05T19:07:47.957Z,96438.47
2022-08-05T19:10:17.997Z,96443.28
2022-08-05T19:12:46.154Z,96446.22
2022-08-05T19:15:57.844Z,96453.34
2022-08-05T19:18:09.510Z,96463.94
2022-08-05T19:20:41.660Z,96465.28
2022-08-05T19:24:04.941Z,96462.22
2022-08-05T19:26:02.174Z,96480.66
2022-08-05T19:28:30.965Z,96478.28
2022-08-05T19:30:59.047Z,96473.56
2022-08-05T19:33:34.023Z,96483.63
2022-08-05T19:36:06.457Z,96485.25
2022-08-05T19:38:35.845Z,96493.41
2022-08-05T19:41:07.366Z,96501.06
2022-08-05T19:44:06.283Z,96510.81
2022-08-05T19:46:29.460Z,96514.50
2022-08-05T19:49:01.192Z,96517.09
2022-08-05T19:52:04.663Z,96515.56
2022-08-05T19:54:27.237Z,96516.63
2022-08-05T19:57:02.316Z,96522.94
2022-08-05T19:59:59.438Z,96526.09
2022-08-05T20:02:18.217Z,96520.31
2022-08-05T20:04:48.424Z,96529.97
2022-08-05T20:07:46.224Z,96538.91
2022-08-05T20:10:08.279Z,96547.06
2022-08-05T20:12:48.357Z,96555.72
2022-08-05T20:15:48.815Z,96561.78
2022-08-05T20:18:09.609Z,96567.03
2022-08-05T20:20:47.763Z,96572.81
2022-08-05T20:23:15.815Z,96570.94
2022-08-05T20:25:43.395Z,96567.00
2022-08-05T20:28:14.674Z,96569.09
2022-08-05T20:30:42.417Z,96557.25
2022-08-05T20:33:09.949Z,96560.94
2022-08-05T20:35:40.550Z,96575.38
2022-08-05T20:38:20.253Z,96579.31
2022-08-05T20:40:56.286Z,96582.75
2022-08-05T20:43:57.678Z,96588.47
2022-08-05T20:46:18.535Z,96590.31
2022-08-05T20:48:52.673Z,96596.88
2022-08-05T20:51:22.505Z,96599.97
2022-08-05T20:53:56.380Z,96598.69
2022-08-05T20:56:28.946Z,96607.84
2022-08-05T20:59:11.380Z,96599.41
2022-08-05T21:01:46.943Z,96612.53
2022-08-05T21:04:14.658Z,96613.28
2022-08-05T21:06:45.854Z,96619.56
2022-08-05T21:09:14.583Z,96623.97
2022-08-05T21:12:10.396Z,96611.59
2022-08-05T21:14:35.224Z,96611.31
2022-08-05T21:17:05.351Z,96628.56
2022-08-05T21:19:47.444Z,96617.03
2022-08-05T21:22:21.819Z,96632.66
2022-08-05T21:24:51.892Z,96625.31
2022-08-05T21:27:20.518Z,96636.00
2022-08-05T21:29:54.088Z,96630.00
2022-08-05T21:32:22.903Z,96637.91
2022-08-05T21:34:55.993Z,96633.16
2022-08-05T21:37:41.317Z,96614.72
2022-08-05T21:40:13.627Z,96640.47
2022-08-05T21:42:45.174Z,96641.53
2022-08-05T21:45:24.728Z,96643.31
2022-08-05T21:48:06.326Z,96644.59
2022-08-05T21:50:36.710Z,96639.31
2022-08-05T21:53:16.387Z,96633.69
2022-08-05T21:56:04.814Z,96641.28
2022-08-05T21:58:32.891Z,96633.03
2022-08-05T22:01:02.095Z,96647.44
2022-08-05T22:03:52.518Z,96642.28
2022-08-05T22:06:22.731Z,96645.16
2022-08-05T22:08:52.219Z,96637.19
2022-08-05T22:11:34.375Z,96648.97
2022-08-05T22:14:34.068Z,96646.09
2022-08-05T22:16:53.070Z,96643.41
2022-08-05T22:20:00.540Z,96633.97
2022-08-05T22:22:12.994Z,96660.97
2022-08-05T22:24:59.637Z,96671.06
2022-08-05T22:28:09.658Z,96664.75
2022-08-05T22:30:34.985Z,96660.19
2022-08-05T22:33:15.178Z,96660.03
2022-08-05T22:35:48.446Z,96662.81
2022-08-05T22:38:16.452Z,96671.97
2022-08-05T22:40:49.519Z,96672.19
2022-08-05T22:43:36.895Z,96676.41
2022-08-05T22:46:12.130Z,96682.13
2022-08-05T22:48:42.268Z,96690.72
2022-08-05T22:51:16.092Z,96690.50
2022-08-05T22:53:50.635Z,96687.00
2022-08-05T22:56:30.621Z,96695.47
2022-08-05T22:59:00.130Z,96692.84
2022-08-05T23:01:50.977Z,96698.19
2022-08-05T23:04:21.270Z,96712.22
2022-08-05T23:06:48.711Z,96695.09
2022-08-05T23:09:27.657Z,96707.00
2022-08-05T23:12:04.562Z,96710.34
2022-08-05T23:14:32.648Z,96716.59
2022-08-05T23:17:18.698Z,96716.53
2022-08-05T23:19:56.116Z,96718.50
2022-08-05T23:22:27.116Z,96713.50
2022-08-05T23:24:55.654Z,96723.44
2022-08-05T23:27:24.139Z,96722.41
2022-08-05T23:29:56.629Z,96720.56
2022-08-05T23:32:24.598Z,96724.66
2022-08-05T23:34:56.494Z,96730.88
2022-08-05T23:37:23.963Z,96733.00
2022-08-05T23:39:54.973Z,96733.75
2022-08-05T23:42:23.377Z,96736.41
2022-08-05T23:44:56.454Z,96729.47
2022-08-05T23:47:25.411Z,96740.09
2022-08-05T23:49:55.602Z,96730.78
2022-08-05T23:52:30.806Z,96738.00
2022-08-05T23:55:00.543Z,96742.50
2022-08-05T23:57:28.665Z,96734.81
